Time;durP1;ratioP1;P1;durP2;ratioP2;P2;SDS_P1;SDS_P2;PMS_P1;PMS_P2;Temp;Humidity;BMP_temperature;BMP_pressure;BME280_temperature;BME280_humidity;BME280_pressure;Samples;Min_cycle;Max_cycle;Signal;HPM_P1;HPM_P2
2023/08/10 00:01:41;;;;;;;;;;;;;;;;;;5304341;28;19908;-73
2023/08/10 00:04:12;;;;;;;;;;;;;;;;;;5305098;28;19926;-73
2023/08/10 00:06:43;;;;;;;;;;;;;;;;;;5303588;28;20435;-74
2023/08/10 00:09:14;;;;;;;;;;;;;;;;;;5304678;28;19908;-73
2023/08/10 00:11:45;;;;;;;;;;;;;;;;;;5304041;28;20425;-73
2023/08/10 00:14:16;;;;;;;;;;;;;;;;;;5303802;28;19955;-73
2023/08/10 00:16:47;;;;;;;;;;;;;;;;;;5304177;28;19908;-74
2023/08/10 00:19:18;;;;;;;;;;;;;;;;;;5304550;28;20053;-73
2023/08/10 00:21:50;;;;;;;;;;;;;;;;;;5303075;28;19912;-73
2023/08/10 00:24:21;;;;;;;;;;;;;;;;;;5304532;28;19912;-73
2023/08/10 00:26:52;;;;;;;;;;;;;;;;;;5302968;28;19986;-74
2023/08/10 00:29:23;;;;;;;;;;;;;;;;;;5304144;28;19911;-74
2023/08/10 00:31:55;;;;;;;;;;;;;;;;;;5304029;28;19912;-73
2023/08/10 00:34:26;;;;;;;;;;;;;;;;;;5302328;28;19931;-74
2023/08/10 00:36:57;;;;;;;;;;;;;;;;;;5303803;28;19912;-74
2023/08/10 00:39:28;;;;;;;;;;;;;;;;;;5304102;28;19924;-73
2023/08/10 00:41:59;;;;;;;;;;;;;;;;;;5302949;28;19962;-73
2023/08/10 00:44:30;;;;;;;;;;;;;;;;;;5303531;28;19991;-74
2023/08/10 00:47:01;;;;;;;;;;;;;;;;;;5304017;28;20002;-73
2023/08/10 00:49:33;;;;;;;;;;;;;;;;;;5302700;28;19908;-74
2023/08/10 00:52:04;;;;;;;;;;;;;;;;;;5304107;28;20398;-73
2023/08/10 00:54:35;;;;;;;;;;;;;;;;;;5303329;28;19999;-73
2023/08/10 00:57:06;;;;;;;;;;;;;;;;;;5303115;28;19951;-73
2023/08/10 00:59:37;;;;;;;;;;;;;;;;;;5303108;28;20018;-74
2023/08/10 01:02:09;;;;;;;;;;;;;;;;;;5303230;28;20371;-73
2023/08/10 01:04:40;;;;;;;;;;;;;;;;;;5303166;28;19958;-74
2023/08/10 01:07:11;;;;;;;;;;;;;;;;;;5303700;28;19915;-74
2023/08/10 01:09:42;;;;;;;;;;;;;;;;;;5302205;28;19908;-74
2023/08/10 01:12:13;;;;;;;;;;;;;;;;;;5303527;28;19909;-74
2023/08/10 01:14:46;;;;;;;;;;;;;;;;;;5303202;28;20281;-73
2023/08/10 01:17:18;;;;;;;;;;;;;;;;;;5302931;28;19904;-73
2023/08/10 01:19:49;;;;;;;;;;;;;;;;;;5302676;28;19920;-73
2023/08/10 01:22:20;;;;;;;;;;;;;;;;;;5303341;28;19915;-74
2023/08/10 01:24:51;;;;;;;;;;;;;;;;;;5302101;28;19912;-75
2023/08/10 01:27:22;;;;;;;;;;;;;;;;;;5303471;28;19908;-75
2023/08/10 01:29:53;;;;;;;;;;;;;;;;;;5303166;28;19908;-74
2023/08/10 01:32:25;;;;;;;;;;;;;;;;;;5302397;28;19919;-75
2023/08/10 01:34:56;;;;;;;;;;;;;;;;;;5302802;28;20011;-74
2023/08/10 01:37:27;;;;;;;;;;;;;;;;;;5302412;28;20415;-75
2023/08/10 01:39:59;;;;;;;;;;;;;;;;;;5303010;28;19924;-74
2023/08/10 01:42:30;;;;;;;;;;;;;;;;;;5302657;28;19908;-74
2023/08/10 01:45:04;;;;;;;;;;;;;;;;;;5302377;28;19908;-75
2023/08/10 01:47:36;;;;;;;;;;;;;;;;;;5306890;28;19912;-75
2023/08/10 01:50:07;;;;;;;;;;;;;;;;;;5307744;28;20274;-75
2023/08/10 01:52:38;;;;;;;;;;;;;;;;;;5305971;28;19969;-75
2023/08/10 01:55:09;;;;;;;;;;;;;;;;;;5307590;28;20005;-75
2023/08/10 01:57:40;;;;;;;;;;;;;;;;;;5306759;28;19908;-74
2023/08/10 02:00:12;;;;;;;;;;;;;;;;;;5306416;28;19908;-74
2023/08/10 02:02:43;;;;;;;;;;;;;;;;;;5306538;28;19912;-75
2023/08/10 02:05:14;;;;;;;;;;;;;;;;;;5307305;28;20013;-75
2023/08/10 02:07:48;;;;;;;;;;;;;;;;;;5305768;28;19966;-74
2023/08/10 02:10:19;;;;;;;;;;;;;;;;;;5307186;28;19908;-74
2023/08/10 02:12:50;;;;;;;;;;;;;;;;;;5305374;28;20372;-75
2023/08/10 02:15:22;;;;;;;;;;;;;;;;;;5307088;28;19908;-74
2023/08/10 02:17:53;;;;;;;;;;;;;;;;;;5306720;28;19955;-74
2023/08/10 02:20:24;;;;;;;;;;;;;;;;;;5305978;28;20419;-75
2023/08/10 02:22:55;;;;;;;;;;;;;;;;;;5306537;28;19961;-74
2023/08/10 02:25:26;;;;;;;;;;;;;;;;;;5306865;28;19947;-74
2023/08/10 02:27:57;;;;;;;;;;;;;;;;;;5305861;28;19908;-74
2023/08/10 02:30:29;;;;;;;;;;;;;;;;;;5306554;28;19908;-75
2023/08/10 02:33:00;;;;;;;;;;;;;;;;;;5306456;28;19948;-74
2023/08/10 02:35:31;;;;;;;;;;;;;;;;;;5304972;28;20418;-75
2023/08/10 02:38:02;;;;;;;;;;;;;;;;;;5306682;28;19919;-75
2023/08/10 02:40:33;;;;;;;;;;;;;;;;;;5305022;28;19908;-75
2023/08/10 02:43:04;;;;;;;;;;;;;;;;;;5306451;28;19908;-74
2023/08/10 02:45:36;;;;;;;;;;;;;;;;;;5305776;28;19912;-73
2023/08/10 02:48:07;;;;;;;;;;;;;;;;;;5305483;28;19908;-75
2023/08/10 02:50:38;;;;;;;;;;;;;;;;;;5305660;28;20366;-75
2023/08/10 02:53:09;;;;;;;;;;;;;;;;;;5306377;28;19908;-74
2023/08/10 02:55:40;;;;;;;;;;;;;;;;;;5305067;28;19908;-75
2023/08/10 02:58:11;;;;;;;;;;;;;;;;;;5305554;28;19923;-74
2023/08/10 03:00:42;;;;;;;;;;;;;;;;;;5305482;28;19919;-75
2023/08/10 03:03:14;;;;;;;;;;;;;;;;;;5305257;28;19908;-74
2023/08/10 03:05:45;;;;;;;;;;;;;;;;;;5305593;28;20378;-74
2023/08/10 03:08:16;;;;;;;;;;;;;;;;;;5306257;28;19909;-74
2023/08/10 03:10:47;;;;;;;;;;;;;;;;;;5305034;28;20362;-74
2023/08/10 03:13:19;;;;;;;;;;;;;;;;;;5306095;28;19915;-74
2023/08/10 03:15:50;;;;;;;;;;;;;;;;;;5304652;28;20036;-74
2023/08/10 03:18:21;;;;;;;;;;;;;;;;;;5305850;28;19977;-74
2023/08/10 03:20:52;;;;;;;;;;;;;;;;;;5305193;28;19908;-74
2023/08/10 03:23:24;;;;;;;;;;;;;;;;;;5304656;28;19908;-75
2023/08/10 03:25:55;;;;;;;;;;;;;;;;;;5305659;28;19909;-74
2023/08/10 03:28:26;;;;;;;;;;;;;;;;;;5305473;28;19912;-75
2023/08/10 03:30:57;;;;;;;;;;;;;;;;;;5304578;28;19909;-74
2023/08/10 03:33:28;;;;;;;;;;;;;;;;;;5305134;28;19915;-75
2023/08/10 03:36:01;;;;;;;;;;;;;;;;;;5305026;28;19974;-74
2023/08/10 03:38:32;;;;;;;;;;;;;;;;;;5304198;28;20394;-75
2023/08/10 03:41:03;;;;;;;;;;;;;;;;;;5305159;28;19908;-74
2023/08/10 03:43:34;;;;;;;;;;;;;;;;;;5304635;28;19915;-74
2023/08/10 03:46:06;;;;;;;;;;;;;;;;;;5304221;28;19912;-74
2023/08/10 03:48:38;;;;;;;;;;;;;;;;;;5304702;28;19912;-74
2023/08/10 03:51:09;;;;;;;;;;;;;;;;;;5304425;28;20409;-74
2023/08/10 03:53:40;;;;;;;;;;;;;;;;;;5304360;28;19908;-74
2023/08/10 03:56:11;;;;;;;;;;;;;;;;;;5304805;28;19914;-74
2023/08/10 03:58:43;;;;;;;;;;;;;;;;;;5303451;28;20309;-74
2023/08/10 04:01:14;;;;;;;;;;;;;;;;;;5305034;28;19908;-74
2023/08/10 04:03:45;;;;;;;;;;;;;;;;;;5304256;28;19952;-75
2023/08/10 04:06:16;;;;;;;;;;;;;;;;;;5303723;28;19960;-75
2023/08/10 04:08:48;;;;;;;;;;;;;;;;;;5302999;28;19904;-75
2023/08/10 04:11:19;;;;;;;;;;;;;;;;;;5304435;28;19915;-75
2023/08/10 04:13:50;;;;;;;;;;;;;;;;;;5303392;28;19912;-74
2023/08/10 04:16:21;;;;;;;;;;;;;;;;;;5304311;28;19943;-74
2023/08/10 04:18:52;;;;;;;;;;;;;;;;;;5304041;28;20278;-72
2023/08/10 04:21:24;;;;;;;;;;;;;;;;;;5303399;28;19908;-75
2023/08/10 04:23:55;;;;;;;;;;;;;;;;;;5304232;28;19908;-73
2023/08/10 04:26:27;;;;;;;;;;;;;;;;;;5303489;28;19908;-73
2023/08/10 04:28:58;;;;;;;;;;;;;;;;;;5304290;28;20279;-73
2023/08/10 04:31:29;;;;;;;;;;;;;;;;;;5303675;28;19908;-73
2023/08/10 04:34:00;;;;;;;;;;;;;;;;;;5303123;28;19912;-73
2023/08/10 04:36:33;;;;;;;;;;;;;;;;;;5303458;28;19916;-73
2023/08/10 04:39:04;;;;;;;;;;;;;;;;;;5304194;28;19923;-73
2023/08/10 04:41:35;;;;;;;;;;;;;;;;;;5302491;28;19908;-73
2023/08/10 04:44:06;;;;;;;;;;;;;;;;;;5304030;28;19912;-73
2023/08/10 04:46:37;;;;;;;;;;;;;;;;;;5303315;28;19908;-73
2023/08/10 04:49:08;;;;;;;;;;;;;;;;;;5303295;28;19908;-73
2023/08/10 04:51:39;;;;;;;;;;;;;;;;;;5303355;28;19916;-73
2023/08/10 04:54:10;;;;;;;;;;;;;;;;;;5303166;28;20388;-74
2023/08/10 04:56:42;;;;;;;;;;;;;;;;;;5303105;28;19999;-73
2023/08/10 04:59:13;;;;;;;;;;;;;;;;;;5303619;28;20046;-73
2023/08/10 05:01:44;;;;;;;;;;;;;;;;;;5302108;28;19999;-73
2023/08/10 05:04:15;;;;;;;;;;;;;;;;;;5303769;28;20022;-74
2023/08/10 05:06:46;;;;;;;;;;;;;;;;;;5303143;28;19915;-74
2023/08/10 05:09:17;;;;;;;;;;;;;;;;;;5302767;28;20386;-74
2023/08/10 05:11:49;;;;;;;;;;;;;;;;;;5302721;28;19935;-74
2023/08/10 05:14:20;;;;;;;;;;;;;;;;;;5303620;28;20049;-74
2023/08/10 05:16:51;;;;;;;;;;;;;;;;;;5302034;28;19908;-74
2023/08/10 05:19:22;;;;;;;;;;;;;;;;;;5303425;28;19916;-74
2023/08/10 05:21:53;;;;;;;;;;;;;;;;;;5302791;28;20359;-74
2023/08/10 05:24:24;;;;;;;;;;;;;;;;;;5302247;28;20003;-73
2023/08/10 05:26:55;;;;;;;;;;;;;;;;;;5303354;28;20274;-74
2023/08/10 05:29:26;;;;;;;;;;;;;;;;;;5302237;28;20006;-74
2023/08/10 05:31:57;;;;;;;;;;;;;;;;;;5302879;28;19916;-74
2023/08/10 05:34:29;;;;;;;;;;;;;;;;;;5302734;28;19924;-74
2023/08/10 05:37:00;;;;;;;;;;;;;;;;;;5302348;28;20002;-74
2023/08/10 05:39:31;;;;;;;;;;;;;;;;;;5302544;28;19923;-74
2023/08/10 05:42:02;;;;;;;;;;;;;;;;;;5303104;28;19908;-74
2023/08/10 05:44:33;;;;;;;;;;;;;;;;;;5301812;28;19908;-74
2023/08/10 05:47:05;;;;;;;;;;;;;;;;;;5303179;28;20022;-74
2023/08/10 05:49:36;;;;;;;;;;;;;;;;;;5302638;28;19915;-74
2023/08/10 05:52:07;;;;;;;;;;;;;;;;;;5302232;28;19915;-74
2023/08/10 05:54:39;;;;;;;;;;;;;;;;;;5302667;28;20029;-74
2023/08/10 05:57:10;;;;;;;;;;;;;;;;;;5303109;28;20000;-74
2023/08/10 05:59:41;;;;;;;;;;;;;;;;;;5301505;28;19922;-73
2023/08/10 06:02:12;;;;;;;;;;;;;;;;;;5303154;28;19969;-73
2023/08/10 06:04:43;;;;;;;;;;;;;;;;;;5301555;28;19908;-73
2023/08/10 06:07:15;;;;;;;;;;;;;;;;;;5303177;28;19932;-73
2023/08/10 06:09:46;;;;;;;;;;;;;;;;;;5302257;28;19908;-73
2023/08/10 06:12:18;;;;;;;;;;;;;;;;;;5302116;28;19908;-72
2023/08/10 06:14:49;;;;;;;;;;;;;;;;;;5302484;28;19912;-73
2023/08/10 06:17:20;;;;;;;;;;;;;;;;;;5302925;28;19905;-73
2023/08/10 06:19:51;;;;;;;;;;;;;;;;;;5301260;28;19916;-75
2023/08/10 06:22:23;;;;;;;;;;;;;;;;;;5302601;28;20037;-73
2023/08/10 06:24:54;;;;;;;;;;;;;;;;;;5302688;28;20006;-73
2023/08/10 06:27:26;;;;;;;;;;;;;;;;;;5301937;28;19908;-73
2023/08/10 06:29:58;;;;;;;;;;;;;;;;;;5302507;28;20306;-74
2023/08/10 06:32:31;;;;;;;;;;;;;;;;;;5304423;28;20004;-73
2023/08/10 06:35:03;;;;;;;;;;;;;;;;;;5305837;28;20398;-74
2023/08/10 06:37:35;;;;;;;;;;;;;;;;;;5306108;28;19908;-74
2023/08/10 06:40:08;;;;;;;;;;;;;;;;;;5305833;28;20260;-74
2023/08/10 06:42:39;;;;;;;;;;;;;;;;;;5305952;28;20374;-74
2023/08/10 06:45:10;;;;;;;;;;;;;;;;;;5306458;28;19915;-74
2023/08/10 06:47:43;;;;;;;;;;;;;;;;;;5304868;28;20367;-74
2023/08/10 06:50:14;;;;;;;;;;;;;;;;;;5306585;28;20011;-74
2023/08/10 06:52:45;;;;;;;;;;;;;;;;;;5306017;28;20117;-75
2023/08/10 06:55:16;;;;;;;;;;;;;;;;;;5305399;28;19915;-74
2023/08/10 06:57:48;;;;;;;;;;;;;;;;;;5305359;28;19997;-74
2023/08/10 07:00:20;;;;;;;;;;;;;;;;;;5306023;28;20464;-74
2023/08/10 07:02:53;;;;;;;;;;;;;;;;;;5305066;28;20271;-74
2023/08/10 07:05:31;;;;;;;;;;;;;;;;;;5306335;28;20263;-75
2023/08/10 07:08:02;;;;;;;;;;;;;;;;;;5305390;28;20729;-74
2023/08/10 07:10:33;;;;;;;;;;;;;;;;;;5305232;28;19908;-74
2023/08/10 07:13:04;;;;;;;;;;;;;;;;;;5305789;28;20003;-73
2023/08/10 07:15:35;;;;;;;;;;;;;;;;;;5304388;28;20454;-74
2023/08/10 07:18:07;;;;;;;;;;;;;;;;;;5305752;28;19912;-73
2023/08/10 07:20:38;;;;;;;;;;;;;;;;;;5304917;28;19954;-73
2023/08/10 07:23:11;;;;;;;;;;;;;;;;;;5304989;28;19912;-73
2023/08/10 07:25:43;;;;;;;;;;;;;;;;;;5305171;28;19982;-74
2023/08/10 07:28:14;;;;;;;;;;;;;;;;;;5305698;28;19908;-73
2023/08/10 07:30:47;;;;;;;;;;;;;;;;;;5304022;28;19912;-74
2023/08/10 07:33:18;;;;;;;;;;;;;;;;;;5305403;28;19961;-74
2023/08/10 07:35:50;;;;;;;;;;;;;;;;;;5304265;28;19928;-74
2023/08/10 07:38:21;;;;;;;;;;;;;;;;;;5304660;28;19916;-75
2023/08/10 07:40:52;;;;;;;;;;;;;;;;;;5304648;28;20056;-74
2023/08/10 07:43:23;;;;;;;;;;;;;;;;;;5304184;28;19908;-74
2023/08/10 07:45:54;;;;;;;;;;;;;;;;;;5304823;28;19908;-74
2023/08/10 07:48:25;;;;;;;;;;;;;;;;;;5304995;28;19999;-74
2023/08/10 07:50:58;;;;;;;;;;;;;;;;;;5304051;28;19915;-74
2023/08/10 07:53:29;;;;;;;;;;;;;;;;;;5304686;28;20318;-74
2023/08/10 07:56:00;;;;;;;;;;;;;;;;;;5304944;28;19951;-74
2023/08/10 07:58:32;;;;;;;;;;;;;;;;;;5303528;28;19973;-74
2023/08/10 08:01:03;;;;;;;;;;;;;;;;;;5305273;28;19908;-74
2023/08/10 08:03:34;;;;;;;;;;;;;;;;;;5304574;28;19951;-75
2023/08/10 08:06:05;;;;;;;;;;;;;;;;;;5303918;28;20006;-74
2023/08/10 08:08:36;;;;;;;;;;;;;;;;;;5304260;28;19916;-74
2023/08/10 08:11:07;;;;;;;;;;;;;;;;;;5303930;28;19911;-74
2023/08/10 08:13:39;;;;;;;;;;;;;;;;;;5304037;28;19955;-75
2023/08/10 08:16:10;;;;;;;;;;;;;;;;;;5304761;28;20354;-74
2023/08/10 08:18:41;;;;;;;;;;;;;;;;;;5303262;28;19920;-75
2023/08/10 08:21:12;;;;;;;;;;;;;;;;;;5304541;28;20311;-76
2023/08/10 08:23:43;;;;;;;;;;;;;;;;;;5303857;28;20240;-75
2023/08/10 08:26:14;;;;;;;;;;;;;;;;;;5303808;28;19912;-75
2023/08/10 08:28:45;;;;;;;;;;;;;;;;;;5303908;28;20577;-74
2023/08/10 08:31:16;;;;;;;;;;;;;;;;;;5304675;28;19908;-74
2023/08/10 08:33:48;;;;;;;;;;;;;;;;;;5302095;28;20310;-74
2023/08/10 08:36:19;;;;;;;;;;;;;;;;;;5304391;28;19912;-75
2023/08/10 08:38:51;;;;;;;;;;;;;;;;;;5303666;28;20373;-75
2023/08/10 08:41:22;;;;;;;;;;;;;;;;;;5303512;28;19950;-75
2023/08/10 08:43:55;;;;;;;;;;;;;;;;;;5302901;28;20481;-74
2023/08/10 08:46:26;;;;;;;;;;;;;;;;;;5302765;28;19915;-74
2023/08/10 08:48:57;;;;;;;;;;;;;;;;;;5303744;28;19908;-74
2023/08/10 08:51:28;;;;;;;;;;;;;;;;;;5303712;28;19908;-74
2023/08/10 08:54:00;;;;;;;;;;;;;;;;;;5302393;28;19916;-74
2023/08/10 08:56:31;;;;;;;;;;;;;;;;;;5303098;28;19915;-74
2023/08/10 08:59:02;;;;;;;;;;;;;;;;;;5303689;28;19923;-74
2023/08/10 09:01:33;;;;;;;;;;;;;;;;;;5302507;28;20328;-74
2023/08/10 09:04:04;;;;;;;;;;;;;;;;;;5303964;28;19943;-74
2023/08/10 09:06:35;;;;;;;;;;;;;;;;;;5302996;28;19969;-74
2023/08/10 09:09:07;;;;;;;;;;;;;;;;;;5302752;28;20282;-74
2023/08/10 09:11:38;;;;;;;;;;;;;;;;;;5302856;28;19908;-74
2023/08/10 09:14:09;;;;;;;;;;;;;;;;;;5303718;28;19915;-74
2023/08/10 09:16:44;;;;;;;;;;;;;;;;;;5301976;28;19915;-74
2023/08/10 09:19:16;;;;;;;;;;;;;;;;;;5303067;28;19928;-73
2023/08/10 09:21:47;;;;;;;;;;;;;;;;;;5301554;28;19908;-73
2023/08/10 09:24:18;;;;;;;;;;;;;;;;;;5302699;28;19944;-73
2023/08/10 09:26:49;;;;;;;;;;;;;;;;;;5302606;28;20355;-73
2023/08/10 09:29:20;;;;;;;;;;;;;;;;;;5302525;28;19931;-73
2023/08/10 09:31:51;;;;;;;;;;;;;;;;;;5302594;28;19950;-74
2023/08/10 09:34:22;;;;;;;;;;;;;;;;;;5302791;28;19970;-73
2023/08/10 09:36:53;;;;;;;;;;;;;;;;;;5302250;28;19908;-74
2023/08/10 09:39:25;;;;;;;;;;;;;;;;;;5302870;28;20362;-73
2023/08/10 09:41:56;;;;;;;;;;;;;;;;;;5302881;28;19957;-73
2023/08/10 09:44:28;;;;;;;;;;;;;;;;;;5301972;28;20328;-73
2023/08/10 09:46:59;;;;;;;;;;;;;;;;;;5302795;28;19915;-73
2023/08/10 09:49:30;;;;;;;;;;;;;;;;;;5302126;28;19915;-74
2023/08/10 09:52:01;;;;;;;;;;;;;;;;;;5303034;28;19908;-73
2023/08/10 09:54:32;;;;;;;;;;;;;;;;;;5302554;28;20255;-73
2023/08/10 09:57:03;;;;;;;;;;;;;;;;;;5302311;28;19916;-73
2023/08/10 09:59:34;;;;;;;;;;;;;;;;;;5302426;28;19916;-73
2023/08/10 10:02:05;;;;;;;;;;;;;;;;;;5303103;28;19916;-73
2023/08/10 10:04:37;;;;;;;;;;;;;;;;;;5301506;28;19912;-74
2023/08/10 10:07:08;;;;;;;;;;;;;;;;;;5304547;28;19908;-73
2023/08/10 10:09:39;;;;;;;;;;;;;;;;;;5306388;28;20366;-74
2023/08/10 10:12:10;;;;;;;;;;;;;;;;;;5306464;28;20075;-74
2023/08/10 10:14:41;;;;;;;;;;;;;;;;;;5306476;28;19908;-73
2023/08/10 10:17:12;;;;;;;;;;;;;;;;;;5307107;28;19999;-74
2023/08/10 10:19:44;;;;;;;;;;;;;;;;;;5305648;28;19920;-74
2023/08/10 10:22:15;;;;;;;;;;;;;;;;;;5306720;28;19912;-74
2023/08/10 10:24:46;;;;;;;;;;;;;;;;;;5305505;28;20365;-74
2023/08/10 10:27:17;;;;;;;;;;;;;;;;;;5306596;28;20007;-74
2023/08/10 10:29:48;;;;;;;;;;;;;;;;;;5306203;28;19931;-74
2023/08/10 10:32:19;;;;;;;;;;;;;;;;;;5305921;28;19994;-74
2023/08/10 10:34:51;;;;;;;;;;;;;;;;;;5305865;28;20022;-73
2023/08/10 10:37:22;;;;;;;;;;;;;;;;;;5306712;28;19908;-74
2023/08/10 10:39:53;;;;;;;;;;;;;;;;;;5305033;28;19923;-74
2023/08/10 10:42:24;;;;;;;;;;;;;;;;;;5306215;28;19908;-74
2023/08/10 10:44:55;;;;;;;;;;;;;;;;;;5306104;28;19908;-74
2023/08/10 10:47:26;;;;;;;;;;;;;;;;;;5305153;28;19920;-74
2023/08/10 10:49:57;;;;;;;;;;;;;;;;;;5306215;28;20351;-74
2023/08/10 10:52:28;;;;;;;;;;;;;;;;;;5306047;28;19912;-74
2023/08/10 10:55:00;;;;;;;;;;;;;;;;;;5305225;28;19908;-74
2023/08/10 10:57:31;;;;;;;;;;;;;;;;;;5305613;28;19915;-74
2023/08/10 11:00:03;;;;;;;;;;;;;;;;;;5305478;28;19931;-74
2023/08/10 11:02:35;;;;;;;;;;;;;;;;;;5305740;28;19908;-74
2023/08/10 11:05:06;;;;;;;;;;;;;;;;;;5306086;28;19912;-74
2023/08/10 11:07:37;;;;;;;;;;;;;;;;;;5304553;28;19931;-74
2023/08/10 11:10:08;;;;;;;;;;;;;;;;;;5305986;28;19908;-74
2023/08/10 11:12:39;;;;;;;;;;;;;;;;;;5305424;28;19909;-74
2023/08/10 11:15:10;;;;;;;;;;;;;;;;;;5305276;28;19912;-73
2023/08/10 11:17:42;;;;;;;;;;;;;;;;;;5304726;28;19909;-74
2023/08/10 11:20:17;;;;;;;;;;;;;;;;;;5305558;28;20363;-73
2023/08/10 11:22:49;;;;;;;;;;;;;;;;;;5304240;28;20031;-74
2023/08/10 11:25:20;;;;;;;;;;;;;;;;;;5305628;28;20051;-74
2023/08/10 11:27:51;;;;;;;;;;;;;;;;;;5304813;28;19912;-74
2023/08/10 11:30:22;;;;;;;;;;;;;;;;;;5304912;28;19908;-73
2023/08/10 11:32:54;;;;;;;;;;;;;;;;;;5304755;28;19908;-73
2023/08/10 11:35:25;;;;;;;;;;;;;;;;;;5304183;28;20030;-75
2023/08/10 11:37:56;;;;;;;;;;;;;;;;;;5305133;28;19908;-74
2023/08/10 11:40:28;;;;;;;;;;;;;;;;;;5305139;28;19924;-70
2023/08/10 11:42:59;;;;;;;;;;;;;;;;;;5304263;28;20363;-74
2023/08/10 11:45:30;;;;;;;;;;;;;;;;;;5304508;28;19915;-73
2023/08/10 11:48:01;;;;;;;;;;;;;;;;;;5306077;28;19912;-69
2023/08/10 11:50:32;;;;;;;;;;;;;;;;;;5303604;28;19908;-72
2023/08/10 11:53:06;;;;;;;;;;;;;;;;;;5304844;28;20370;-71
2023/08/10 11:55:37;;;;;;;;;;;;;;;;;;5304328;28;20371;-72
2023/08/10 11:58:09;;;;;;;;;;;;;;;;;;5303836;28;19912;-73
2023/08/10 12:00:40;;;;;;;;;;;;;;;;;;5304267;28;20381;-72
2023/08/10 12:03:14;;;;;;;;;;;;;;;;;;5304117;28;20324;-74
2023/08/10 12:05:45;;;;;;;;;;;;;;;;;;5304126;28;19915;-74
2023/08/10 12:08:16;;;;;;;;;;;;;;;;;;5304656;28;19908;-73
2023/08/10 12:10:50;;;;;;;;;;;;;;;;;;5303246;28;20003;-73
2023/08/10 12:13:21;;;;;;;;;;;;;;;;;;5304799;28;19909;-74
2023/08/10 12:15:52;;;;;;;;;;;;;;;;;;5304218;28;20252;-73
2023/08/10 12:18:23;;;;;;;;;;;;;;;;;;5303380;28;19963;-74
2023/08/10 12:20:54;;;;;;;;;;;;;;;;;;5303754;28;20361;-70
2023/08/10 12:23:25;;;;;;;;;;;;;;;;;;5304207;28;19912;-72
2023/08/10 12:25:56;;;;;;;;;;;;;;;;;;5303369;28;20378;-72
2023/08/10 12:28:28;;;;;;;;;;;;;;;;;;5304121;28;19913;-72
2023/08/10 12:30:59;;;;;;;;;;;;;;;;;;5303393;28;20362;-70
2023/08/10 12:33:30;;;;;;;;;;;;;;;;;;5302903;28;19908;-71
2023/08/10 12:36:02;;;;;;;;;;;;;;;;;;5304110;28;20281;-72
2023/08/10 12:38:33;;;;;;;;;;;;;;;;;;5302836;28;19912;-72
2023/08/10 12:41:05;;;;;;;;;;;;;;;;;;5303862;28;19913;-72
2023/08/10 12:43:36;;;;;;;;;;;;;;;;;;5303263;28;19935;-72
2023/08/10 12:46:07;;;;;;;;;;;;;;;;;;5303336;28;19908;-72
2023/08/10 12:48:38;;;;;;;;;;;;;;;;;;5299684;28;20019;-72
2023/08/10 12:51:10;;;;;;;;;;;;;;;;;;5323630;28;19947;-73
2023/08/10 12:53:41;;;;;;;;;;;;;;;;;;5323646;28;20332;-72
2023/08/10 12:56:12;;;;;;;;;;;;;;;;;;5324547;28;19908;-72
2023/08/10 12:58:43;;;;;;;;;;;;;;;;;;5323070;28;19920;-72
2023/08/10 13:01:14;;;;;;;;;;;;;;;;;;5321914;28;19952;-72
2023/08/10 13:03:45;;;;;;;;;;;;;;;;;;5324125;28;19915;-72
2023/08/10 13:06:16;;;;;;;;;;;;;;;;;;5323994;28;19912;-72
2023/08/10 13:08:48;;;;;;;;;;;;;;;;;;5323001;28;20363;-72
2023/08/10 13:11:19;;;;;;;;;;;;;;;;;;5324911;28;19908;-74
2023/08/10 13:13:50;;;;;;;;;;;;;;;;;;5301107;28;20752;-74
2023/08/10 13:16:21;;;;;;;;;;;;;;;;;;5324792;28;19922;-73
2023/08/10 13:18:52;;;;;;;;;;;;;;;;;;5323984;28;20320;-73
2023/08/10 13:21:23;;;;;;;;;;;;;;;;;;5322904;28;19918;-73
2023/08/10 13:23:54;;;;;;;;;;;;;;;;;;5323002;28;19908;-73
2023/08/10 13:26:25;;;;;;;;;;;;;;;;;;5322968;28;19960;-72
2023/08/10 13:28:56;;;;;;;;;;;;;;;;;;5321912;28;19920;-72
2023/08/10 13:31:27;;;;;;;;;;;;;;;;;;5324199;28;19908;-73
2023/08/10 13:33:59;;;;;;;;;;;;;;;;;;5323872;28;19912;-73
2023/08/10 13:36:30;;;;;;;;;;;;;;;;;;5323285;28;19915;-73
2023/08/10 13:39:01;;;;;;;;;;;;;;;;;;5324405;28;19915;-73
2023/08/10 13:41:32;;;;;;;;;;;;;;;;;;5328202;28;20270;-73
2023/08/10 13:44:03;;;;;;;;;;;;;;;;;;5330714;28;19912;-73
2023/08/10 13:46:35;;;;;;;;;;;;;;;;;;5330947;28;19908;-73
2023/08/10 13:49:06;;;;;;;;;;;;;;;;;;5330705;28;19960;-73
2023/08/10 13:51:37;;;;;;;;;;;;;;;;;;5330604;28;19908;-73
2023/08/10 13:54:09;;;;;;;;;;;;;;;;;;5331371;28;20314;-73
2023/08/10 13:56:40;;;;;;;;;;;;;;;;;;5329881;28;20044;-74
2023/08/10 13:59:11;;;;;;;;;;;;;;;;;;5331621;28;20337;-73
2023/08/10 14:01:42;;;;;;;;;;;;;;;;;;5331044;28;20460;-73
2023/08/10 14:04:13;;;;;;;;;;;;;;;;;;5330590;28;19914;-73
2023/08/10 14:06:44;;;;;;;;;;;;;;;;;;5330708;28;19931;-74
2023/08/10 14:09:15;;;;;;;;;;;;;;;;;;5331161;28;19908;-73
2023/08/10 14:11:47;;;;;;;;;;;;;;;;;;5330252;28;20420;-73
2023/08/10 14:14:20;;;;;;;;;;;;;;;;;;5331129;28;20006;-73
2023/08/10 14:16:51;;;;;;;;;;;;;;;;;;5329953;28;19946;-73
2023/08/10 14:19:22;;;;;;;;;;;;;;;;;;5331087;28;19959;-73
2023/08/10 14:21:53;;;;;;;;;;;;;;;;;;5330506;28;20278;-73
2023/08/10 14:24:25;;;;;;;;;;;;;;;;;;5330007;28;19962;-73
2023/08/10 14:26:57;;;;;;;;;;;;;;;;;;5330864;28;19911;-74
2023/08/10 14:29:28;;;;;;;;;;;;;;;;;;5330657;28;19907;-74
2023/08/10 14:31:59;;;;;;;;;;;;;;;;;;5329950;28;19911;-74
2023/08/10 14:34:30;;;;;;;;;;;;;;;;;;5330175;28;19920;-74
2023/08/10 14:37:01;;;;;;;;;;;;;;;;;;5331087;28;20358;-74
2023/08/10 14:39:32;;;;;;;;;;;;;;;;;;5329604;28;20398;-74
2023/08/10 14:42:03;;;;;;;;;;;;;;;;;;5330973;28;19908;-74
2023/08/10 14:44:35;;;;;;;;;;;;;;;;;;5330344;28;20340;-74
2023/08/10 14:47:06;;;;;;;;;;;;;;;;;;5330294;28;19911;-73
2023/08/10 14:49:37;;;;;;;;;;;;;;;;;;5330348;28;20427;-73
2023/08/10 14:52:08;;;;;;;;;;;;;;;;;;5328484;28;19908;-74
2023/08/10 14:54:40;;;;;;;;;;;;;;;;;;5326830;28;20350;-74
2023/08/10 14:57:11;;;;;;;;;;;;;;;;;;5327369;28;19914;-73
2023/08/10 14:59:42;;;;;;;;;;;;;;;;;;5326079;28;20432;-73
2023/08/10 15:02:14;;;;;;;;;;;;;;;;;;5327285;28;19915;-73
2023/08/10 15:04:45;;;;;;;;;;;;;;;;;;5326421;28;19931;-73
2023/08/10 15:07:16;;;;;;;;;;;;;;;;;;5326493;28;20289;-74
2023/08/10 15:09:47;;;;;;;;;;;;;;;;;;5326339;28;19907;-73
2023/08/10 15:12:18;;;;;;;;;;;;;;;;;;5327046;28;19915;-73
2023/08/10 15:14:49;;;;;;;;;;;;;;;;;;5325959;28;19912;-73
2023/08/10 15:17:20;;;;;;;;;;;;;;;;;;5327095;28;19954;-73
2023/08/10 15:19:51;;;;;;;;;;;;;;;;;;5326189;28;20259;-73
2023/08/10 15:22:22;;;;;;;;;;;;;;;;;;5326083;28;20354;-73
2023/08/10 15:24:53;;;;;;;;;;;;;;;;;;5326323;28;19908;-73
2023/08/10 15:27:24;;;;;;;;;;;;;;;;;;5325853;28;19907;-73
2023/08/10 15:29:56;;;;;;;;;;;;;;;;;;5326472;28;19907;-73
2023/08/10 15:32:27;;;;;;;;;;;;;;;;;;5326297;28;20354;-73
2023/08/10 15:34:58;;;;;;;;;;;;;;;;;;5325428;28;19963;-73
2023/08/10 15:37:32;;;;;;;;;;;;;;;;;;5326276;28;20358;-73
2023/08/10 15:40:04;;;;;;;;;;;;;;;;;;5326392;28;19916;-73
2023/08/10 15:42:35;;;;;;;;;;;;;;;;;;5325355;28;20322;-73
2023/08/10 15:45:06;;;;;;;;;;;;;;;;;;5326507;28;20447;-73
2023/08/10 15:47:37;;;;;;;;;;;;;;;;;;5325602;28;19911;-73
2023/08/10 15:50:08;;;;;;;;;;;;;;;;;;5325804;28;20018;-73
2023/08/10 15:52:40;;;;;;;;;;;;;;;;;;5325755;28;19990;-73
2023/08/10 15:55:11;;;;;;;;;;;;;;;;;;5326124;28;19911;-74
2023/08/10 15:57:42;;;;;;;;;;;;;;;;;;5321790;28;19965;-73
2023/08/10 16:00:13;;;;;;;;;;;;;;;;;;5325733;28;19945;-73
2023/08/10 16:02:45;;;;;;;;;;;;;;;;;;5324687;28;19911;-73
2023/08/10 16:05:16;;;;;;;;;;;;;;;;;;5324896;28;19912;-73
2023/08/10 16:07:47;;;;;;;;;;;;;;;;;;5325288;28;19919;-74
2023/08/10 16:10:18;;;;;;;;;;;;;;;;;;5325029;28;19911;-74
2023/08/10 16:12:49;;;;;;;;;;;;;;;;;;5325235;28;20076;-72
2023/08/10 16:15:21;;;;;;;;;;;;;;;;;;5323894;28;19953;-72
2023/08/10 16:17:52;;;;;;;;;;;;;;;;;;5324389;28;19915;-72
2023/08/10 16:20:23;;;;;;;;;;;;;;;;;;5324133;28;19920;-72
2023/08/10 16:22:54;;;;;;;;;;;;;;;;;;5325527;28;19908;-73
2023/08/10 16:25:25;;;;;;;;;;;;;;;;;;5324475;28;19907;-73
2023/08/10 16:27:57;;;;;;;;;;;;;;;;;;5325481;28;20387;-72
2023/08/10 16:30:28;;;;;;;;;;;;;;;;;;5324813;28;19950;-72
2023/08/10 16:32:59;;;;;;;;;;;;;;;;;;5325163;28;19915;-72
2023/08/10 16:35:30;;;;;;;;;;;;;;;;;;5324663;28;20417;-72
2023/08/10 16:38:01;;;;;;;;;;;;;;;;;;5327941;28;19908;-72
2023/08/10 16:40:32;;;;;;;;;;;;;;;;;;5325905;28;19916;-72
2023/08/10 16:43:04;;;;;;;;;;;;;;;;;;5326182;28;19975;-73
2023/08/10 16:45:35;;;;;;;;;;;;;;;;;;5325814;28;19986;-73
2023/08/10 16:48:06;;;;;;;;;;;;;;;;;;5325521;28;20282;-73
2023/08/10 16:50:37;;;;;;;;;;;;;;;;;;5324441;28;19908;-74
2023/08/10 16:53:09;;;;;;;;;;;;;;;;;;5324643;28;20039;-73
2023/08/10 16:55:40;;;;;;;;;;;;;;;;;;5324527;28;19908;-74
2023/08/10 16:58:11;;;;;;;;;;;;;;;;;;5324888;28;20366;-74
2023/08/10 17:00:42;;;;;;;;;;;;;;;;;;5323738;28;19916;-72
2023/08/10 17:03:13;;;;;;;;;;;;;;;;;;5325100;28;19930;-72
2023/08/10 17:05:44;;;;;;;;;;;;;;;;;;5323411;28;19914;-73
2023/08/10 17:08:15;;;;;;;;;;;;;;;;;;5324321;28;19908;-73
2023/08/10 17:10:46;;;;;;;;;;;;;;;;;;5324386;28;19914;-74
2023/08/10 17:13:17;;;;;;;;;;;;;;;;;;5324103;28;20419;-74